sensor_id;sensor_type;location;lat;lon;timestamp;temperature;humidity
736;DHT22;352;48.626;9.238;2022-12-07T00:00:12;6.50;99.90
736;DHT22;352;48.626;9.238;2022-12-07T00:02:40;6.50;99.90
736;DHT22;352;48.626;9.238;2022-12-07T00:05:08;6.50;99.90
736;DHT22;352;48.626;9.238;2022-12-07T00:07:35;6.50;99.90
736;DHT22;352;48.626;9.238;2022-12-07T00:10:02;6.50;99.90
736;DHT22;352;48.626;9.238;2022-12-07T00:12:29;6.50;99.90
736;DHT22;352;48.626;9.238;2022-12-07T00:14:55;6.50;99.90
736;DHT22;352;48.626;9.238;2022-12-07T00:17:22;6.50;99.90
736;DHT22;352;48.626;9.238;2022-12-07T00:19:49;6.50;99.90
736;DHT22;352;48.626;9.238;2022-12-07T00:22:17;6.50;99.90
736;DHT22;352;48.626;9.238;2022-12-07T00:24:44;6.50;99.90
736;DHT22;352;48.626;9.238;2022-12-07T00:27:10;6.50;99.90
736;DHT22;352;48.626;9.238;2022-12-07T00:29:37;6.50;99.90
736;DHT22;352;48.626;9.238;2022-12-07T00:32:04;6.40;99.90
736;DHT22;352;48.626;9.238;2022-12-07T00:34:31;6.40;99.90
736;DHT22;352;48.626;9.238;2022-12-07T00:36:58;6.50;99.90
736;DHT22;352;48.626;9.238;2022-12-07T00:39:26;6.50;99.90
736;DHT22;352;48.626;9.238;2022-12-07T00:41:52;6.50;99.90
736;DHT22;352;48.626;9.238;2022-12-07T00:44:19;6.50;99.90
736;DHT22;352;48.626;9.238;2022-12-07T00:46:46;6.50;99.90
736;DHT22;352;48.626;9.238;2022-12-07T00:49:13;6.50;99.90
736;DHT22;352;48.626;9.238;2022-12-07T00:51:39;6.50;99.90
736;DHT22;352;48.626;9.238;2022-12-07T00:54:06;6.50;99.90
736;DHT22;352;48.626;9.238;2022-12-07T00:56:34;6.50;99.90
736;DHT22;352;48.626;9.238;2022-12-07T00:59:03;6.40;99.90
736;DHT22;352;48.626;9.238;2022-12-07T01:01:32;6.50;99.90
736;DHT22;352;48.626;9.238;2022-12-07T01:03:59;6.50;99.90
736;DHT22;352;48.626;9.238;2022-12-07T01:06:26;6.40;99.90
736;DHT22;352;48.626;9.238;2022-12-07T01:08:54;6.40;99.90
736;DHT22;352;48.626;9.238;2022-12-07T01:11:23;6.50;99.90
736;DHT22;352;48.626;9.238;2022-12-07T01:13:51;6.40;99.90
736;DHT22;352;48.626;9.238;2022-12-07T01:16:20;6.40;99.90
736;DHT22;352;48.626;9.238;2022-12-07T01:18:49;6.40;99.90
736;DHT22;352;48.626;9.238;2022-12-07T01:21:18;6.40;99.90
736;DHT22;352;48.626;9.238;2022-12-07T01:23:46;6.40;99.90
736;DHT22;352;48.626;9.238;2022-12-07T01:26:15;6.40;99.90
736;DHT22;352;48.626;9.238;2022-12-07T01:28:42;6.40;99.90
736;DHT22;352;48.626;9.238;2022-12-07T01:31:12;6.40;99.90
736;DHT22;352;48.626;9.238;2022-12-07T01:33:40;6.40;99.90
736;DHT22;352;48.626;9.238;2022-12-07T01:36:13;6.40;99.90
736;DHT22;352;48.626;9.238;2022-12-07T01:38:40;6.40;99.90
736;DHT22;352;48.626;9.238;2022-12-07T01:41:07;6.40;99.90
736;DHT22;352;48.626;9.238;2022-12-07T01:43:34;6.40;99.90
736;DHT22;352;48.626;9.238;2022-12-07T01:46:02;6.50;99.90
736;DHT22;352;48.626;9.238;2022-12-07T01:48:34;6.40;99.90
736;DHT22;352;48.626;9.238;2022-12-07T01:51:04;6.40;99.90
736;DHT22;352;48.626;9.238;2022-12-07T01:53:33;6.40;99.90
736;DHT22;352;48.626;9.238;2022-12-07T01:56:01;6.40;99.90
736;DHT22;352;48.626;9.238;2022-12-07T01:58:28;6.40;99.90
736;DHT22;352;48.626;9.238;2022-12-07T02:00:55;6.40;99.90
736;DHT22;352;48.626;9.238;2022-12-07T02:03:25;6.40;99.90
736;DHT22;352;48.626;9.238;2022-12-07T02:05:55;6.40;99.90
736;DHT22;352;48.626;9.238;2022-12-07T02:08:22;6.40;99.90
736;DHT22;352;48.626;9.238;2022-12-07T02:10:50;6.40;99.90
736;DHT22;352;48.626;9.238;2022-12-07T02:13:19;6.30;99.90
736;DHT22;352;48.626;9.238;2022-12-07T02:18:52;6.30;99.90
736;DHT22;352;48.626;9.238;2022-12-07T02:21:31;6.20;99.90
736;DHT22;352;48.626;9.238;2022-12-07T02:24:18;6.20;99.90
736;DHT22;352;48.626;9.238;2022-12-07T02:27:07;6.20;99.90
736;DHT22;352;48.626;9.238;2022-12-07T02:29:42;6.20;99.90
736;DHT22;352;48.626;9.238;2022-12-07T02:32:15;6.20;99.90
736;DHT22;352;48.626;9.238;2022-12-07T02:34:48;6.10;99.90
736;DHT22;352;48.626;9.238;2022-12-07T02:37:23;6.10;99.90
736;DHT22;352;48.626;9.238;2022-12-07T02:39:55;6.10;99.90
736;DHT22;352;48.626;9.238;2022-12-07T02:42:28;6.10;99.90
736;DHT22;352;48.626;9.238;2022-12-07T02:44:59;6.10;99.90
736;DHT22;352;48.626;9.238;2022-12-07T02:47:28;6.10;99.90
736;DHT22;352;48.626;9.238;2022-12-07T02:49:56;6.10;99.90
736;DHT22;352;48.626;9.238;2022-12-07T02:52:23;6.10;99.90
736;DHT22;352;48.626;9.238;2022-12-07T02:54:49;6.10;99.90
736;DHT22;352;48.626;9.238;2022-12-07T02:57:32;6.10;99.90
736;DHT22;352;48.626;9.238;2022-12-07T03:00:07;6.10;99.90
736;DHT22;352;48.626;9.238;2022-12-07T03:02:40;6.10;99.90
736;DHT22;352;48.626;9.238;2022-12-07T03:05:31;6.10;99.90
736;DHT22;352;48.626;9.238;2022-12-07T03:08:05;6.10;99.90
736;DHT22;352;48.626;9.238;2022-12-07T03:10:40;6.00;99.90
736;DHT22;352;48.626;9.238;2022-12-07T03:13:12;6.00;99.90
736;DHT22;352;48.626;9.238;2022-12-07T03:15:54;6.00;99.90
736;DHT22;352;48.626;9.238;2022-12-07T03:18:25;6.00;99.90
736;DHT22;352;48.626;9.238;2022-12-07T03:20:55;6.00;99.90
736;DHT22;352;48.626;9.238;2022-12-07T03:23:25;6.00;99.90
736;DHT22;352;48.626;9.238;2022-12-07T03:25:56;6.00;99.90
736;DHT22;352;48.626;9.238;2022-12-07T03:28:27;6.00;99.90
736;DHT22;352;48.626;9.238;2022-12-07T03:31:01;6.00;99.90
736;DHT22;352;48.626;9.238;2022-12-07T03:33:33;6.00;99.90
736;DHT22;352;48.626;9.238;2022-12-07T03:36:06;6.00;99.90
736;DHT22;352;48.626;9.238;2022-12-07T03:38:36;5.90;99.90
736;DHT22;352;48.626;9.238;2022-12-07T03:41:07;6.00;99.90
736;DHT22;352;48.626;9.238;2022-12-07T03:43:36;5.90;99.90
736;DHT22;352;48.626;9.238;2022-12-07T03:46:14;5.90;99.90
736;DHT22;352;48.626;9.238;2022-12-07T03:48:49;5.90;99.90
736;DHT22;352;48.626;9.238;2022-12-07T03:51:21;5.90;99.90
736;DHT22;352;48.626;9.238;2022-12-07T03:53:57;5.90;99.90
736;DHT22;352;48.626;9.238;2022-12-07T03:56:25;5.90;99.90
736;DHT22;352;48.626;9.238;2022-12-07T03:58:54;5.90;99.90
736;DHT22;352;48.626;9.238;2022-12-07T04:01:23;5.90;99.90
736;DHT22;352;48.626;9.238;2022-12-07T04:03:50;5.90;99.90
736;DHT22;352;48.626;9.238;2022-12-07T04:06:16;5.90;99.90
736;DHT22;352;48.626;9.238;2022-12-07T04:08:43;5.90;99.90
736;DHT22;352;48.626;9.238;2022-12-07T04:11:10;5.80;99.90
736;DHT22;352;48.626;9.238;2022-12-07T04:13:37;5.90;99.90
736;DHT22;352;48.626;9.238;2022-12-07T04:16:17;5.80;99.90
736;DHT22;352;48.626;9.238;2022-12-07T04:18:46;5.80;99.90
736;DHT22;352;48.626;9.238;2022-12-07T04:21:12;5.80;99.90
736;DHT22;352;48.626;9.238;2022-12-07T04:23:39;5.80;99.90
736;DHT22;352;48.626;9.238;2022-12-07T04:26:06;5.80;99.90
736;DHT22;352;48.626;9.238;2022-12-07T04:28:33;5.80;99.90
736;DHT22;352;48.626;9.238;2022-12-07T04:31:00;5.80;99.90
736;DHT22;352;48.626;9.238;2022-12-07T04:33:26;5.70;99.90
736;DHT22;352;48.626;9.238;2022-12-07T04:35:55;5.70;99.90
736;DHT22;352;48.626;9.238;2022-12-07T04:38:21;5.70;99.90
736;DHT22;352;48.626;9.238;2022-12-07T04:40:48;5.70;99.90
736;DHT22;352;48.626;9.238;2022-12-07T04:43:15;5.70;99.90
736;DHT22;352;48.626;9.238;2022-12-07T04:45:46;5.70;99.90
736;DHT22;352;48.626;9.238;2022-12-07T04:48:12;5.70;99.90
736;DHT22;352;48.626;9.238;2022-12-07T04:50:39;5.70;99.90
736;DHT22;352;48.626;9.238;2022-12-07T04:53:07;5.60;99.90
736;DHT22;352;48.626;9.238;2022-12-07T04:55:34;5.60;99.90
736;DHT22;352;48.626;9.238;2022-12-07T04:58:01;5.60;99.90
736;DHT22;352;48.626;9.238;2022-12-07T05:00:27;5.50;99.90
736;DHT22;352;48.626;9.238;2022-12-07T05:02:54;5.40;99.90
736;DHT22;352;48.626;9.238;2022-12-07T05:05:21;5.30;99.90
736;DHT22;352;48.626;9.238;2022-12-07T05:07:48;5.30;99.90
736;DHT22;352;48.626;9.238;2022-12-07T05:10:16;5.20;99.90
736;DHT22;352;48.626;9.238;2022-12-07T05:12:43;5.20;99.90
736;DHT22;352;48.626;9.238;2022-12-07T05:15:11;5.10;99.90
736;DHT22;352;48.626;9.238;2022-12-07T05:17:37;5.10;99.90
736;DHT22;352;48.626;9.238;2022-12-07T05:20:05;5.00;99.90
736;DHT22;352;48.626;9.238;2022-12-07T05:22:33;5.00;99.90
736;DHT22;352;48.626;9.238;2022-12-07T05:25:00;4.90;99.90
736;DHT22;352;48.626;9.238;2022-12-07T05:27:28;4.90;99.90
736;DHT22;352;48.626;9.238;2022-12-07T05:29:55;4.80;99.90
736;DHT22;352;48.626;9.238;2022-12-07T05:32:21;4.80;99.90
736;DHT22;352;48.626;9.238;2022-12-07T05:34:48;4.80;99.90
736;DHT22;352;48.626;9.238;2022-12-07T05:37:15;4.80;99.90
736;DHT22;352;48.626;9.238;2022-12-07T05:39:41;4.80;99.90
736;DHT22;352;48.626;9.238;2022-12-07T05:42:10;4.90;99.90
736;DHT22;352;48.626;9.238;2022-12-07T05:44:42;4.90;99.90
736;DHT22;352;48.626;9.238;2022-12-07T05:47:09;4.90;99.90
736;DHT22;352;48.626;9.238;2022-12-07T05:49:36;4.90;99.90
736;DHT22;352;48.626;9.238;2022-12-07T05:52:03;5.00;99.90
736;DHT22;352;48.626;9.238;2022-12-07T05:54:30;5.00;99.90
736;DHT22;352;48.626;9.238;2022-12-07T05:56:57;4.90;99.90
736;DHT22;352;48.626;9.238;2022-12-07T05:59:24;4.90;99.90
736;DHT22;352;48.626;9.238;2022-12-07T06:01:54;4.80;99.90
736;DHT22;352;48.626;9.238;2022-12-07T06:04:21;4.80;99.90
736;DHT22;352;48.626;9.238;2022-12-07T06:06:48;4.70;99.90
736;DHT22;352;48.626;9.238;2022-12-07T06:09:16;4.70;99.90
736;DHT22;352;48.626;9.238;2022-12-07T06:11:44;4.60;99.90
736;DHT22;352;48.626;9.238;2022-12-07T06:14:28;4.50;99.90
736;DHT22;352;48.626;9.238;2022-12-07T06:16:56;4.50;99.90
736;DHT22;352;48.626;9.238;2022-12-07T06:19:23;4.40;99.90
736;DHT22;352;48.626;9.238;2022-12-07T06:21:50;4.40;99.90
736;DHT22;352;48.626;9.238;2022-12-07T06:24:17;4.30;99.90
736;DHT22;352;48.626;9.238;2022-12-07T06:26:44;4.20;99.90
736;DHT22;352;48.626;9.238;2022-12-07T06:29:12;4.20;99.90
736;DHT22;352;48.626;9.238;2022-12-07T06:31:39;4.20;99.90
736;DHT22;352;48.626;9.238;2022-12-07T06:34:10;4.20;99.90
736;DHT22;352;48.626;9.238;2022-12-07T06:36:37;4.30;99.90
736;DHT22;352;48.626;9.238;2022-12-07T06:39:04;4.30;99.90
736;DHT22;352;48.626;9.238;2022-12-07T06:41:31;4.30;99.90
736;DHT22;352;48.626;9.238;2022-12-07T06:43:58;4.30;99.90
736;DHT22;352;48.626;9.238;2022-12-07T06:46:25;4.30;99.90
736;DHT22;352;48.626;9.238;2022-12-07T06:48:52;4.30;99.90
736;DHT22;352;48.626;9.238;2022-12-07T06:51:20;4.30;99.90
736;DHT22;352;48.626;9.238;2022-12-07T06:53:50;4.30;99.90
736;DHT22;352;48.626;9.238;2022-12-07T06:56:24;4.30;99.90
736;DHT22;352;48.626;9.238;2022-12-07T06:58:51;4.40;99.90
736;DHT22;352;48.626;9.238;2022-12-07T07:01:18;4.40;99.90
736;DHT22;352;48.626;9.238;2022-12-07T07:03:45;4.50;99.90
736;DHT22;352;48.626;9.238;2022-12-07T07:06:13;4.50;99.90
736;DHT22;352;48.626;9.238;2022-12-07T07:08:42;4.50;99.90
736;DHT22;352;48.626;9.238;2022-12-07T07:11:10;4.50;99.90
736;DHT22;352;48.626;9.238;2022-12-07T07:13:38;4.50;99.90
736;DHT22;352;48.626;9.238;2022-12-07T07:16:06;4.60;99.90
736;DHT22;352;48.626;9.238;2022-12-07T07:18:34;4.60;99.90
736;DHT22;352;48.626;9.238;2022-12-07T07:21:03;4.70;99.90
736;DHT22;352;48.626;9.238;2022-12-07T07:23:30;4.70;99.90
736;DHT22;352;48.626;9.238;2022-12-07T07:25:58;4.70;99.90
736;DHT22;352;48.626;9.238;2022-12-07T07:28:25;4.70;99.90
736;DHT22;352;48.626;9.238;2022-12-07T07:30:51;4.70;99.90
736;DHT22;352;48.626;9.238;2022-12-07T07:33:18;4.80;99.90
736;DHT22;352;48.626;9.238;2022-12-07T07:35:45;4.80;99.90
736;DHT22;352;48.626;9.238;2022-12-07T07:38:12;4.70;99.90
736;DHT22;352;48.626;9.238;2022-12-07T07:40:39;4.80;99.90
736;DHT22;352;48.626;9.238;2022-12-07T07:43:08;4.80;99.90
736;DHT22;352;48.626;9.238;2022-12-07T07:45:34;4.80;99.90
736;DHT22;352;48.626;9.238;2022-12-07T07:48:01;4.90;99.90
736;DHT22;352;48.626;9.238;2022-12-07T07:50:28;5.00;99.90
736;DHT22;352;48.626;9.238;2022-12-07T07:52:56;5.00;99.90
736;DHT22;352;48.626;9.238;2022-12-07T07:55:23;5.10;99.90
736;DHT22;352;48.626;9.238;2022-12-07T07:57:50;5.10;99.90
736;DHT22;352;48.626;9.238;2022-12-07T08:00:19;5.20;99.90
736;DHT22;352;48.626;9.238;2022-12-07T08:02:45;5.20;99.90
736;DHT22;352;48.626;9.238;2022-12-07T08:05:13;5.30;99.90
736;DHT22;352;48.626;9.238;2022-12-07T08:07:41;5.30;99.90
736;DHT22;352;48.626;9.238;2022-12-07T08:10:10;5.40;99.90
736;DHT22;352;48.626;9.238;2022-12-07T08:12:37;5.40;99.90
736;DHT22;352;48.626;9.238;2022-12-07T08:15:27;5.40;99.90
736;DHT22;352;48.626;9.238;2022-12-07T08:17:54;5.50;99.90
736;DHT22;352;48.626;9.238;2022-12-07T08:20:20;5.50;99.90
736;DHT22;352;48.626;9.238;2022-12-07T08:22:47;5.50;99.90
736;DHT22;352;48.626;9.238;2022-12-07T08:25:14;5.60;99.90
736;DHT22;352;48.626;9.238;2022-12-07T08:27:41;5.70;99.90
736;DHT22;352;48.626;9.238;2022-12-07T08:30:08;5.80;99.90
736;DHT22;352;48.626;9.238;2022-12-07T08:32:36;5.80;99.90
736;DHT22;352;48.626;9.238;2022-12-07T08:35:03;5.80;99.90
736;DHT22;352;48.626;9.238;2022-12-07T08:37:31;5.90;99.90
736;DHT22;352;48.626;9.238;2022-12-07T08:39:58;5.90;99.90
736;DHT22;352;48.626;9.238;2022-12-07T08:42:24;5.90;99.90
736;DHT22;352;48.626;9.238;2022-12-07T08:44:55;5.90;99.90
736;DHT22;352;48.626;9.238;2022-12-07T08:47:22;6.00;99.90
736;DHT22;352;48.626;9.238;2022-12-07T08:49:51;6.10;99.90
736;DHT22;352;48.626;9.238;2022-12-07T08:52:20;6.20;99.90
736;DHT22;352;48.626;9.238;2022-12-07T08:54:48;6.20;99.90
736;DHT22;352;48.626;9.238;2022-12-07T08:57:15;6.20;99.90
736;DHT22;352;48.626;9.238;2022-12-07T08:59:48;6.30;99.90
736;DHT22;352;48.626;9.238;2022-12-07T09:02:15;6.30;99.90
736;DHT22;352;48.626;9.238;2022-12-07T09:04:42;6.40;99.90
736;DHT22;352;48.626;9.238;2022-12-07T09:07:10;6.40;99.90
736;DHT22;352;48.626;9.238;2022-12-07T09:09:37;6.50;99.90
736;DHT22;352;48.626;9.238;2022-12-07T09:12:04;6.60;99.90
736;DHT22;352;48.626;9.238;2022-12-07T09:14:31;6.70;99.90
736;DHT22;352;48.626;9.238;2022-12-07T09:17:05;6.90;99.90
736;DHT22;352;48.626;9.238;2022-12-07T09:19:32;6.90;99.90
736;DHT22;352;48.626;9.238;2022-12-07T09:21:59;7.10;99.90
736;DHT22;352;48.626;9.238;2022-12-07T09:24:27;7.20;99.90
736;DHT22;352;48.626;9.238;2022-12-07T09:26:55;7.40;99.90
736;DHT22;352;48.626;9.238;2022-12-07T09:29:22;7.50;99.90
736;DHT22;352;48.626;9.238;2022-12-07T09:31:49;7.60;99.90
736;DHT22;352;48.626;9.238;2022-12-07T09:34:16;7.60;99.90
736;DHT22;352;48.626;9.238;2022-12-07T09:36:43;7.70;99.90
736;DHT22;352;48.626;9.238;2022-12-07T09:42:44;7.70;99.90
736;DHT22;352;48.626;9.238;2022-12-07T09:45:14;7.70;99.90
736;DHT22;352;48.626;9.238;2022-12-07T09:47:42;7.80;99.90
736;DHT22;352;48.626;9.238;2022-12-07T09:50:14;8.00;99.90
736;DHT22;352;48.626;9.238;2022-12-07T09:52:43;8.10;99.90
736;DHT22;352;48.626;9.238;2022-12-07T09:55:12;8.20;99.90
736;DHT22;352;48.626;9.238;2022-12-07T09:57:42;8.40;99.90
736;DHT22;352;48.626;9.238;2022-12-07T10:00:14;8.50;99.90
736;DHT22;352;48.626;9.238;2022-12-07T10:02:42;8.50;99.90
736;DHT22;352;48.626;9.238;2022-12-07T10:05:13;8.50;99.90
736;DHT22;352;48.626;9.238;2022-12-07T10:07:40;8.50;99.90
736;DHT22;352;48.626;9.238;2022-12-07T10:10:14;8.50;99.90
736;DHT22;352;48.626;9.238;2022-12-07T10:12:58;8.40;99.90
736;DHT22;352;48.626;9.238;2022-12-07T10:15:45;8.40;99.90
736;DHT22;352;48.626;9.238;2022-12-07T10:18:30;8.40;99.90
736;DHT22;352;48.626;9.238;2022-12-07T10:21:03;8.40;99.90
736;DHT22;352;48.626;9.238;2022-12-07T10:23:30;8.30;99.90
736;DHT22;352;48.626;9.238;2022-12-07T10:25:57;8.30;99.90
736;DHT22;352;48.626;9.238;2022-12-07T10:28:34;8.30;99.90
736;DHT22;352;48.626;9.238;2022-12-07T10:31:08;8.30;99.90
736;DHT22;352;48.626;9.238;2022-12-07T10:33:49;8.40;99.90
736;DHT22;352;48.626;9.238;2022-12-07T10:36:20;8.40;99.90
736;DHT22;352;48.626;9.238;2022-12-07T10:38:48;8.50;99.90
736;DHT22;352;48.626;9.238;2022-12-07T10:41:15;8.50;99.90
736;DHT22;352;48.626;9.238;2022-12-07T10:43:54;8.60;99.90
736;DHT22;352;48.626;9.238;2022-12-07T10:46:45;8.60;99.90
736;DHT22;352;48.626;9.238;2022-12-07T10:49:41;8.70;99.90
736;DHT22;352;48.626;9.238;2022-12-07T10:52:18;8.80;99.90
736;DHT22;352;48.626;9.238;2022-12-07T10:54:59;8.90;99.90
736;DHT22;352;48.626;9.238;2022-12-07T10:57:39;9.00;99.90
736;DHT22;352;48.626;9.238;2022-12-07T11:00:16;9.10;99.90
736;DHT22;352;48.626;9.238;2022-12-07T11:03:04;9.10;99.90
736;DHT22;352;48.626;9.238;2022-12-07T11:05:39;9.10;99.90
736;DHT22;352;48.626;9.238;2022-12-07T11:08:15;9.10;99.90
736;DHT22;352;48.626;9.238;2022-12-07T11:10:50;9.10;99.90
736;DHT22;352;48.626;9.238;2022-12-07T11:13:26;9.10;99.90
736;DHT22;352;48.626;9.238;2022-12-07T11:16:07;9.40;99.90
736;DHT22;352;48.626;9.238;2022-12-07T11:18:41;9.30;99.90
736;DHT22;352;48.626;9.238;2022-12-07T11:21:18;9.10;99.90
736;DHT22;352;48.626;9.238;2022-12-07T11:23:50;9.20;99.90
736;DHT22;352;48.626;9.238;2022-12-07T11:26:31;9.20;99.90
736;DHT22;352;48.626;9.238;2022-12-07T11:29:14;9.40;99.90
736;DHT22;352;48.626;9.238;2022-12-07T11:31:53;9.20;99.90
736;DHT22;352;48.626;9.238;2022-12-07T11:34:29;9.20;99.90
736;DHT22;352;48.626;9.238;2022-12-07T11:37:02;9.30;99.90
736;DHT22;352;48.626;9.238;2022-12-07T11:39:35;9.10;99.90
736;DHT22;352;48.626;9.238;2022-12-07T11:42:08;9.10;99.90
736;DHT22;352;48.626;9.238;2022-12-07T11:44:50;9.20;99.90
736;DHT22;352;48.626;9.238;2022-12-07T11:47:26;9.20;99.90
736;DHT22;352;48.626;9.238;2022-12-07T11:49:58;9.20;99.90
736;DHT22;352;48.626;9.238;2022-12-07T11:52:40;9.20;99.90
736;DHT22;352;48.626;9.238;2022-12-07T11:55:19;9.20;99.90
736;DHT22;352;48.626;9.238;2022-12-07T11:57:51;9.20;99.90
736;DHT22;352;48.626;9.238;2022-12-07T12:00:20;9.20;99.90
736;DHT22;352;48.626;9.238;2022-12-07T12:02:53;9.20;99.90
736;DHT22;352;48.626;9.238;2022-12-07T12:05:24;9.30;99.90
736;DHT22;352;48.626;9.238;2022-12-07T12:07:58;9.10;99.90
736;DHT22;352;48.626;9.238;2022-12-07T12:10:30;9.40;99.90
736;DHT22;352;48.626;9.238;2022-12-07T12:13:19;9.30;99.90
736;DHT22;352;48.626;9.238;2022-12-07T12:16:04;9.20;99.90
736;DHT22;352;48.626;9.238;2022-12-07T12:18:46;9.20;99.90
736;DHT22;352;48.626;9.238;2022-12-07T12:21:20;9.20;99.90
736;DHT22;352;48.626;9.238;2022-12-07T12:23:51;9.10;99.90
736;DHT22;352;48.626;9.238;2022-12-07T12:26:23;9.00;99.90
736;DHT22;352;48.626;9.238;2022-12-07T12:28:54;8.90;99.90
736;DHT22;352;48.626;9.238;2022-12-07T12:31:33;9.00;99.90
736;DHT22;352;48.626;9.238;2022-12-07T12:34:29;8.60;99.90
736;DHT22;352;48.626;9.238;2022-12-07T12:36:52;8.90;99.90
736;DHT22;352;48.626;9.238;2022-12-07T12:41:59;8.80;99.90
736;DHT22;352;48.626;9.238;2022-12-07T12:44:42;8.80;99.90
736;DHT22;352;48.626;9.238;2022-12-07T12:50:28;8.70;99.90
736;DHT22;352;48.626;9.238;2022-12-07T12:53:19;8.70;99.90
736;DHT22;352;48.626;9.238;2022-12-07T12:56:17;9.10;99.90
736;DHT22;352;48.626;9.238;2022-12-07T12:58:48;8.50;99.90
736;DHT22;352;48.626;9.238;2022-12-07T13:01:44;8.70;99.90
736;DHT22;352;48.626;9.238;2022-12-07T13:04:28;8.50;99.90
736;DHT22;352;48.626;9.238;2022-12-07T13:06:57;8.90;99.90
736;DHT22;352;48.626;9.238;2022-12-07T13:09:27;8.40;99.90
736;DHT22;352;48.626;9.238;2022-12-07T13:12:01;8.90;99.90
736;DHT22;352;48.626;9.238;2022-12-07T13:14:58;8.30;99.90
736;DHT22;352;48.626;9.238;2022-12-07T13:17:55;8.90;99.90
736;DHT22;352;48.626;9.238;2022-12-07T13:20:50;8.40;99.90
736;DHT22;352;48.626;9.238;2022-12-07T13:23:22;8.80;99.90
736;DHT22;352;48.626;9.238;2022-12-07T13:26:14;8.70;99.90
736;DHT22;352;48.626;9.238;2022-12-07T13:28:43;8.70;99.90
736;DHT22;352;48.626;9.238;2022-12-07T13:31:35;8.70;99.90
736;DHT22;352;48.626;9.238;2022-12-07T13:34:04;8.60;99.90
736;DHT22;352;48.626;9.238;2022-12-07T13:36:33;8.60;99.90
736;DHT22;352;48.626;9.238;2022-12-07T13:39:15;8.60;99.90
736;DHT22;352;48.626;9.238;2022-12-07T13:41:48;8.60;99.90
736;DHT22;352;48.626;9.238;2022-12-07T13:44:17;8.50;99.90
736;DHT22;352;48.626;9.238;2022-12-07T13:46:49;8.60;99.90
736;DHT22;352;48.626;9.238;2022-12-07T13:49:19;8.60;99.90
736;DHT22;352;48.626;9.238;2022-12-07T13:56:41;8.50;99.90
736;DHT22;352;48.626;9.238;2022-12-07T13:59:14;8.50;99.90
736;DHT22;352;48.626;9.238;2022-12-07T14:01:45;8.50;99.90
736;DHT22;352;48.626;9.238;2022-12-07T14:04:27;8.50;99.90
736;DHT22;352;48.626;9.238;2022-12-07T14:06:56;8.40;99.90
736;DHT22;352;48.626;9.238;2022-12-07T14:09:24;8.30;99.90
736;DHT22;352;48.626;9.238;2022-12-07T14:11:53;8.30;99.90
736;DHT22;352;48.626;9.238;2022-12-07T14:14:24;8.30;99.90
736;DHT22;352;48.626;9.238;2022-12-07T14:16:57;8.20;99.90
736;DHT22;352;48.626;9.238;2022-12-07T14:19:45;8.00;99.90
736;DHT22;352;48.626;9.238;2022-12-07T14:22:27;8.10;99.90
736;DHT22;352;48.626;9.238;2022-12-07T14:25:11;8.10;99.90
736;DHT22;352;48.626;9.238;2022-12-07T14:27:49;7.90;99.90
736;DHT22;352;48.626;9.238;2022-12-07T14:30:18;7.80;99.90
736;DHT22;352;48.626;9.238;2022-12-07T14:32:47;7.50;99.90
736;DHT22;352;48.626;9.238;2022-12-07T14:35:17;7.00;99.90
736;DHT22;352;48.626;9.238;2022-12-07T14:37:46;7.50;99.90
736;DHT22;352;48.626;9.238;2022-12-07T14:40:16;7.70;99.90
736;DHT22;352;48.626;9.238;2022-12-07T14:42:43;7.50;99.90
736;DHT22;352;48.626;9.238;2022-12-07T14:45:14;7.20;99.90
736;DHT22;352;48.626;9.238;2022-12-07T14:47:44;7.50;99.90
736;DHT22;352;48.626;9.238;2022-12-07T14:50:13;7.50;99.90
736;DHT22;352;48.626;9.238;2022-12-07T14:52:40;7.40;99.90
736;DHT22;352;48.626;9.238;2022-12-07T14:55:17;7.50;99.90
736;DHT22;352;48.626;9.238;2022-12-07T15:00:14;7.40;99.90
736;DHT22;352;48.626;9.238;2022-12-07T15:02:44;7.10;99.90
736;DHT22;352;48.626;9.238;2022-12-07T15:07:39;7.30;99.90
736;DHT22;352;48.626;9.238;2022-12-07T15:10:09;7.30;99.90
736;DHT22;352;48.626;9.238;2022-12-07T15:12:39;7.10;99.90
736;DHT22;352;48.626;9.238;2022-12-07T15:15:06;7.30;99.90
736;DHT22;352;48.626;9.238;2022-12-07T15:17:33;7.40;99.90
736;DHT22;352;48.626;9.238;2022-12-07T15:20:02;7.30;99.90
736;DHT22;352;48.626;9.238;2022-12-07T15:22:30;7.20;99.90
736;DHT22;352;48.626;9.238;2022-12-07T15:29:51;7.10;99.90
736;DHT22;352;48.626;9.238;2022-12-07T15:32:26;7.00;99.90
736;DHT22;352;48.626;9.238;2022-12-07T15:37:21;7.00;99.90
736;DHT22;352;48.626;9.238;2022-12-07T15:44:42;6.80;99.90
736;DHT22;352;48.626;9.238;2022-12-07T15:47:26;7.00;99.90
736;DHT22;352;48.626;9.238;2022-12-07T15:52:22;7.20;99.90
736;DHT22;352;48.626;9.238;2022-12-07T15:54:48;7.00;99.90
736;DHT22;352;48.626;9.238;2022-12-07T15:57:15;6.80;99.90
736;DHT22;352;48.626;9.238;2022-12-07T15:59:42;6.80;99.90
736;DHT22;352;48.626;9.238;2022-12-07T16:02:09;6.80;99.90
736;DHT22;352;48.626;9.238;2022-12-07T16:04:36;6.80;99.90
736;DHT22;352;48.626;9.238;2022-12-07T16:07:03;6.70;99.90
736;DHT22;352;48.626;9.238;2022-12-07T16:09:31;6.80;99.90
736;DHT22;352;48.626;9.238;2022-12-07T16:11:58;6.80;99.90
736;DHT22;352;48.626;9.238;2022-12-07T16:14:25;6.80;99.90
736;DHT22;352;48.626;9.238;2022-12-07T16:16:52;6.80;99.90
736;DHT22;352;48.626;9.238;2022-12-07T16:19:18;6.70;99.90
736;DHT22;352;48.626;9.238;2022-12-07T16:21:45;6.70;99.90
736;DHT22;352;48.626;9.238;2022-12-07T16:24:12;6.70;99.90
736;DHT22;352;48.626;9.238;2022-12-07T16:26:42;6.60;99.90
736;DHT22;352;48.626;9.238;2022-12-07T16:29:10;6.60;99.90
736;DHT22;352;48.626;9.238;2022-12-07T16:31:37;6.60;99.90
736;DHT22;352;48.626;9.238;2022-12-07T16:34:04;6.60;99.90
736;DHT22;352;48.626;9.238;2022-12-07T16:36:33;6.50;99.90
736;DHT22;352;48.626;9.238;2022-12-07T16:39:00;6.50;99.90
736;DHT22;352;48.626;9.238;2022-12-07T16:41:27;6.50;99.90
736;DHT22;352;48.626;9.238;2022-12-07T16:43:55;6.50;99.90
736;DHT22;352;48.626;9.238;2022-12-07T16:46:22;6.50;99.90
736;DHT22;352;48.626;9.238;2022-12-07T16:48:49;6.40;99.90
736;DHT22;352;48.626;9.238;2022-12-07T16:51:16;6.40;99.90
736;DHT22;352;48.626;9.238;2022-12-07T16:53:42;6.40;99.90
736;DHT22;352;48.626;9.238;2022-12-07T16:56:10;6.30;99.90
736;DHT22;352;48.626;9.238;2022-12-07T16:58:37;6.30;99.90
736;DHT22;352;48.626;9.238;2022-12-07T17:01:10;6.30;99.90
736;DHT22;352;48.626;9.238;2022-12-07T17:03:37;6.30;99.90
736;DHT22;352;48.626;9.238;2022-12-07T17:06:11;6.30;99.90
736;DHT22;352;48.626;9.238;2022-12-07T17:08:38;6.30;99.90
736;DHT22;352;48.626;9.238;2022-12-07T17:11:10;6.30;99.90
736;DHT22;352;48.626;9.238;2022-12-07T17:13:37;6.30;99.90
736;DHT22;352;48.626;9.238;2022-12-07T17:16:22;6.30;99.90
736;DHT22;352;48.626;9.238;2022-12-07T17:18:49;6.30;99.90
736;DHT22;352;48.626;9.238;2022-12-07T17:21:16;6.20;99.90
736;DHT22;352;48.626;9.238;2022-12-07T17:23:43;6.20;99.90
736;DHT22;352;48.626;9.238;2022-12-07T17:26:11;6.20;99.90
736;DHT22;352;48.626;9.238;2022-12-07T17:28:38;6.10;99.90
736;DHT22;352;48.626;9.238;2022-12-07T17:31:06;6.00;99.90
736;DHT22;352;48.626;9.238;2022-12-07T17:33:35;6.00;99.90
736;DHT22;352;48.626;9.238;2022-12-07T17:36:11;5.60;99.90
736;DHT22;352;48.626;9.238;2022-12-07T17:38:44;5.90;99.90
736;DHT22;352;48.626;9.238;2022-12-07T17:41:30;5.80;99.90
736;DHT22;352;48.626;9.238;2022-12-07T17:44:19;5.70;99.90
736;DHT22;352;48.626;9.238;2022-12-07T18:06:23;5.70;99.90
736;DHT22;352;48.626;9.238;2022-12-07T18:08:50;5.80;99.90
736;DHT22;352;48.626;9.238;2022-12-07T18:11:17;6.00;99.90